createdAt,value
2018-07-01T00:05:16.258Z,21.90
2018-07-01T00:07:56.280Z,21.90
2018-07-01T00:10:30.096Z,22.00
2018-07-01T00:13:00.077Z,22.00
2018-07-01T00:15:29.964Z,22.00
2018-07-01T00:18:08.876Z,21.30
2018-07-01T00:20:38.762Z,20.50
2018-07-01T00:23:14.375Z,21.20
2018-07-01T00:25:47.054Z,21.10
2018-07-01T00:28:17.097Z,21.10
2018-07-01T00:30:47.048Z,19.90
2018-07-01T00:33:17.325Z,20.20
2018-07-01T00:35:48.064Z,20.00
2018-07-01T00:38:20.812Z,19.90
2018-07-01T00:40:51.173Z,19.90
2018-07-01T00:43:24.371Z,19.90
2018-07-01T00:46:02.467Z,20.00
2018-07-01T00:48:32.846Z,20.20
2018-07-01T00:51:12.895Z,20.40
2018-07-01T00:53:46.954Z,20.00
2018-07-01T00:56:16.949Z,19.80
2018-07-01T00:58:47.739Z,20.20
2018-07-01T01:01:19.862Z,20.40
2018-07-01T01:03:53.507Z,19.70
2018-07-01T01:06:31.819Z,20.80
2018-07-01T01:09:01.785Z,20.10
2018-07-01T01:11:31.721Z,20.10
2018-07-01T01:14:05.997Z,20.10
2018-07-01T01:16:36.320Z,20.20
2018-07-01T01:19:07.232Z,19.50
2018-07-01T01:21:41.205Z,20.40
2018-07-01T01:24:11.141Z,19.40
2018-07-01T01:26:41.208Z,19.60
2018-07-01T01:29:11.438Z,19.10
2018-07-01T01:31:41.457Z,19.20
2018-07-01T01:34:11.588Z,19.40
2018-07-01T01:36:42.852Z,19.10
2018-07-01T01:39:15.730Z,19.10
2018-07-01T01:41:51.148Z,19.10
2018-07-01T01:44:55.919Z,19.20
2018-07-01T01:47:31.182Z,19.40
2018-07-01T01:51:07.829Z,19.50
2018-07-01T01:53:41.624Z,22.00
2018-07-01T01:56:18.397Z,19.20
2018-07-01T01:58:52.126Z,19.30
2018-07-01T02:01:27.394Z,19.20
2018-07-01T02:04:10.887Z,19.20
2018-07-01T02:06:48.701Z,19.00
2018-07-01T02:09:22.026Z,19.00
2018-07-01T02:11:54.054Z,19.10
2018-07-01T02:14:32.541Z,19.20
2018-07-01T02:17:04.773Z,19.00
2018-07-01T02:19:34.865Z,18.50
2018-07-01T02:22:07.180Z,18.80
2018-07-01T02:24:40.220Z,18.50
2018-07-01T02:27:17.839Z,18.30
2018-07-01T02:29:47.889Z,18.30
2018-07-01T02:32:21.263Z,18.50
2018-07-01T02:34:55.170Z,18.70
2018-07-01T02:37:31.305Z,20.10
2018-07-01T02:40:16.996Z,18.80
2018-07-01T02:42:47.097Z,20.30
2018-07-01T02:45:17.028Z,18.90
2018-07-01T02:47:46.960Z,18.90
2018-07-01T02:50:16.877Z,18.90
2018-07-01T02:52:46.989Z,18.80
2018-07-01T02:55:17.389Z,18.70
2018-07-01T02:57:47.329Z,18.90
2018-07-01T03:00:24.767Z,18.80
2018-07-01T03:03:00.089Z,18.60
2018-07-01T03:05:30.031Z,18.80
2018-07-01T03:08:00.835Z,19.00
2018-07-01T03:10:32.353Z,19.10
2018-07-01T03:13:02.537Z,19.20
2018-07-01T03:15:42.780Z,19.30
2018-07-01T03:18:12.788Z,19.40
2018-07-01T03:20:42.675Z,19.10
2018-07-01T03:23:22.913Z,18.20
2018-07-01T03:25:57.857Z,18.20
2018-07-01T03:28:27.847Z,18.40
2018-07-01T03:30:58.156Z,18.10
2018-07-01T03:33:28.278Z,18.30
2018-07-01T03:35:59.056Z,17.50
2018-07-01T03:38:29.469Z,15.10
2018-07-01T03:40:59.413Z,19.70
2018-07-01T03:43:38.477Z,18.00
2018-07-01T03:48:41.153Z,18.20
2018-07-01T03:51:20.606Z,18.10
2018-07-01T03:53:51.077Z,18.20
2018-07-01T03:56:21.078Z,17.90
2018-07-01T03:58:51.166Z,18.10
2018-07-01T04:01:21.209Z,18.30
2018-07-01T04:03:51.174Z,18.30
2018-07-01T04:06:21.121Z,18.50
2018-07-01T04:08:51.042Z,18.60
2018-07-01T04:11:21.080Z,18.70
2018-07-01T04:13:50.973Z,18.80
2018-07-01T04:16:21.221Z,18.80
2018-07-01T04:18:51.224Z,18.70
2018-07-01T04:21:21.251Z,18.60
2018-07-01T04:23:53.743Z,18.60
2018-07-01T04:26:28.147Z,18.40
2018-07-01T04:28:58.171Z,18.40
2018-07-01T04:31:28.380Z,18.50
2018-07-01T04:33:58.827Z,18.60
2018-07-01T04:36:28.754Z,18.70
2018-07-01T04:38:58.707Z,18.70
2018-07-01T04:41:32.025Z,18.60
2018-07-01T04:44:01.985Z,18.90
2018-07-01T04:46:32.050Z,20.30
2018-07-01T04:49:02.540Z,22.70
2018-07-01T04:51:32.461Z,24.10
2018-07-01T04:54:02.598Z,25.20
2018-07-01T04:56:32.520Z,25.10
2018-07-01T04:59:02.637Z,26.10
2018-07-01T05:01:33.012Z,27.40
2018-07-01T05:04:03.146Z,26.30
2018-07-01T05:06:33.094Z,26.20
2018-07-01T05:09:03.801Z,27.70
2018-07-01T05:11:33.733Z,28.20
2018-07-01T05:14:04.177Z,28.10
2018-07-01T05:19:03.909Z,28.00
2018-07-01T05:21:34.000Z,27.60
2018-07-01T05:24:04.767Z,29.10
2018-07-01T05:26:34.744Z,28.00
2018-07-01T05:29:04.858Z,28.60
2018-07-01T05:31:34.813Z,28.80
2018-07-01T05:34:04.895Z,30.00
2018-07-01T05:36:35.174Z,30.00
2018-07-01T05:39:07.396Z,30.60
2018-07-01T05:41:37.424Z,31.00
2018-07-01T05:44:08.017Z,31.30
2018-07-01T05:46:38.018Z,32.70
2018-07-01T05:49:08.307Z,33.40
2018-07-01T05:51:38.581Z,34.00
2018-07-01T05:54:08.660Z,34.30
2018-07-01T05:56:38.587Z,34.80
2018-07-01T05:59:08.883Z,34.30
2018-07-01T06:01:39.098Z,33.00
2018-07-01T06:04:09.252Z,32.70
2018-07-01T06:06:39.231Z,34.10
2018-07-01T06:09:11.528Z,34.30
2018-07-01T06:11:42.680Z,33.60
2018-07-01T06:14:12.686Z,33.70
2018-07-01T06:16:42.776Z,34.40
2018-07-01T06:19:13.240Z,34.30
2018-07-01T06:21:43.385Z,34.60
2018-07-01T06:24:13.441Z,35.30
2018-07-01T06:26:43.791Z,34.50
2018-07-01T06:29:13.889Z,35.00
2018-07-01T06:31:43.893Z,35.00
2018-07-01T06:34:14.200Z,34.60
2018-07-01T06:36:44.116Z,34.30
2018-07-01T06:39:14.311Z,33.20
2018-07-01T06:41:44.300Z,33.00
2018-07-01T06:44:14.353Z,31.00
2018-07-01T06:46:44.249Z,30.20
2018-07-01T06:49:14.181Z,30.40
2018-07-01T06:51:44.298Z,30.20
2018-07-01T06:54:14.270Z,29.60
2018-07-01T06:56:44.562Z,29.50
2018-07-01T06:59:14.530Z,28.60
2018-07-01T07:01:44.566Z,28.60
2018-07-01T07:04:14.845Z,28.20
2018-07-01T07:06:44.792Z,27.50
2018-07-01T07:09:15.001Z,27.00
2018-07-01T07:14:14.591Z,26.00
2018-07-01T07:16:44.705Z,25.70
2018-07-01T07:19:15.030Z,25.20
2018-07-01T07:21:45.059Z,24.50
2018-07-01T07:24:15.279Z,24.30
2018-07-01T07:26:45.993Z,24.10
2018-07-01T07:29:16.052Z,24.10
2018-07-01T07:31:46.120Z,24.10
2018-07-01T07:34:16.487Z,24.20
2018-07-01T07:36:46.436Z,24.00
2018-07-01T07:39:16.356Z,24.00
2018-07-01T07:41:46.670Z,26.20
2018-07-01T07:44:16.685Z,23.90
2018-07-01T07:46:46.642Z,24.10
2018-07-01T07:49:16.857Z,24.00
2018-07-01T07:51:47.090Z,24.00
2018-07-01T07:54:17.025Z,24.00
2018-07-01T07:56:47.317Z,23.90
2018-07-01T07:59:17.388Z,23.80
2018-07-01T08:01:47.520Z,23.80
2018-07-01T08:04:17.845Z,23.60
2018-07-01T08:06:47.934Z,23.60
2018-07-01T08:09:17.888Z,23.70
2018-07-01T08:11:48.154Z,23.70
2018-07-01T08:14:18.374Z,23.50
2018-07-01T08:16:48.380Z,23.60
2018-07-01T08:19:18.823Z,23.60
2018-07-01T08:21:48.992Z,23.80
2018-07-01T08:24:19.056Z,23.80
2018-07-01T08:26:49.480Z,23.80
2018-07-01T08:29:19.445Z,24.00
2018-07-01T08:31:49.719Z,23.80
2018-07-01T08:34:19.772Z,23.70
2018-07-01T08:36:49.698Z,23.50
2018-07-01T08:39:19.980Z,23.50
2018-07-01T08:42:25.614Z,23.40
2018-07-01T08:44:56.644Z,23.20
2018-07-01T08:47:26.699Z,23.30
2018-07-01T08:49:56.652Z,22.50
2018-07-01T08:52:27.306Z,22.10
2018-07-01T08:54:57.345Z,22.30
2018-07-01T08:57:27.589Z,22.20
2018-07-01T08:59:57.899Z,22.40
2018-07-01T09:02:28.054Z,22.30
2018-07-01T09:04:58.791Z,22.30
2018-07-01T09:07:29.168Z,23.10
2018-07-01T09:09:59.353Z,24.30
2018-07-01T09:12:29.905Z,23.00
2018-07-01T09:15:00.150Z,21.90
2018-07-01T09:17:30.239Z,21.40
2018-07-01T09:20:00.675Z,21.40
2018-07-01T09:22:30.968Z,21.50
2018-07-01T09:25:01.122Z,21.70
2018-07-01T09:27:31.761Z,21.90
2018-07-01T09:30:02.909Z,21.90
2018-07-01T09:32:33.597Z,22.50
2018-07-01T09:35:04.524Z,22.50
2018-07-01T09:37:34.811Z,22.00
2018-07-01T09:40:05.160Z,22.50
2018-07-01T09:42:35.644Z,22.50
2018-07-01T09:45:06.123Z,22.50
2018-07-01T09:47:36.225Z,22.10
2018-07-01T09:50:07.103Z,22.30
2018-07-01T09:52:37.136Z,22.70
2018-07-01T10:01:01.689Z,23.90
2018-07-01T10:06:02.236Z,23.50
2018-07-01T10:08:32.570Z,23.50
2018-07-01T10:11:02.866Z,23.00
2018-07-01T10:13:33.352Z,23.30
2018-07-01T10:16:03.819Z,23.70
2018-07-01T10:18:34.087Z,23.70
2018-07-01T10:21:04.828Z,23.50
2018-07-01T10:23:35.121Z,23.00
2018-07-01T10:26:05.603Z,22.80
2018-07-01T10:28:36.477Z,22.40
2018-07-01T10:31:07.133Z,22.70
2018-07-01T10:33:37.462Z,23.00
2018-07-01T10:36:08.096Z,22.80
2018-07-01T10:38:38.486Z,22.70
2018-07-01T10:41:08.759Z,22.70
2018-07-01T10:43:39.579Z,23.00
2018-07-01T10:46:10.013Z,23.30
2018-07-01T10:48:40.343Z,23.10
2018-07-01T10:51:10.698Z,23.40
2018-07-01T10:53:41.014Z,23.60
2018-07-01T10:56:11.736Z,23.60
2018-07-01T10:58:42.023Z,23.60
2018-07-01T11:01:12.733Z,23.30
2018-07-01T11:03:43.336Z,23.50
2018-07-01T11:06:13.860Z,23.80
2018-07-01T11:08:44.192Z,23.80
2018-07-01T11:11:15.014Z,23.30
2018-07-01T11:13:45.536Z,23.20
2018-07-01T11:16:16.000Z,22.30
2018-07-01T11:18:46.873Z,24.00
2018-07-01T11:21:18.944Z,24.10
2018-07-01T11:23:51.752Z,26.60
2018-07-01T11:26:22.401Z,24.80
2018-07-01T11:28:52.706Z,25.10
2018-07-01T11:31:23.084Z,25.30
2018-07-01T11:33:53.837Z,24.80
2018-07-01T11:36:24.552Z,24.40
2018-07-01T11:38:54.888Z,23.80
2018-07-01T11:41:25.702Z,23.70
2018-07-01T11:43:56.100Z,23.70
2018-07-01T11:46:26.517Z,23.90
2018-07-01T11:48:57.200Z,24.10
2018-07-01T11:51:27.469Z,25.60
2018-07-01T11:53:58.440Z,24.60
2018-07-01T11:56:28.876Z,24.30
2018-07-01T11:58:59.199Z,24.30
2018-07-01T12:01:29.493Z,24.40
2018-07-01T12:04:00.071Z,24.60
2018-07-01T12:06:30.298Z,23.60
2018-07-01T12:09:01.694Z,23.60
2018-07-01T12:11:32.463Z,23.90
2018-07-01T12:14:02.728Z,24.30
2018-07-01T12:16:33.082Z,24.40
2018-07-01T12:19:03.723Z,24.40
2018-07-01T12:22:53.130Z,24.70
2018-07-01T12:25:23.487Z,25.20
2018-07-01T12:27:53.787Z,24.80
2018-07-01T12:30:24.442Z,24.80
2018-07-01T12:32:54.782Z,24.40
2018-07-01T12:35:25.086Z,24.30
2018-07-01T12:37:55.653Z,24.10
2018-07-01T12:40:25.970Z,23.90
2018-07-01T12:42:56.264Z,24.30
2018-07-01T12:45:26.592Z,24.50
2018-07-01T12:47:56.983Z,24.70
2018-07-01T12:50:27.659Z,24.40
2018-07-01T12:52:58.068Z,24.80
2018-07-01T12:55:28.366Z,25.20
2018-07-01T12:57:58.671Z,24.60
2018-07-01T13:00:28.935Z,24.40
2018-07-01T13:02:59.559Z,24.40
2018-07-01T13:05:29.873Z,24.40
2018-07-01T13:08:00.155Z,24.40
2018-07-01T13:10:30.512Z,24.50
2018-07-01T13:13:00.896Z,24.50
2018-07-01T13:15:31.299Z,24.70
2018-07-01T13:18:01.782Z,24.70
2018-07-01T13:20:32.167Z,24.80
2018-07-01T13:23:02.916Z,25.50
2018-07-01T13:25:33.224Z,25.00
2018-07-01T13:28:03.971Z,24.90
2018-07-01T13:30:34.387Z,24.70
2018-07-01T13:33:04.847Z,24.80
2018-07-01T13:35:35.147Z,24.80
2018-07-01T13:38:06.079Z,24.80
2018-07-01T13:40:36.506Z,25.00
2018-07-01T13:43:07.004Z,24.90
2018-07-01T13:45:37.398Z,24.90
2018-07-01T13:48:08.343Z,25.00
2018-07-01T13:50:38.600Z,25.10
2018-07-01T13:53:09.307Z,25.20
2018-07-01T13:55:39.864Z,25.30
2018-07-01T13:58:10.149Z,24.70
2018-07-01T14:00:40.543Z,25.00
2018-07-01T14:03:10.964Z,25.30
2018-07-01T14:05:41.534Z,25.40
2018-07-01T14:08:12.269Z,25.40
2018-07-01T14:10:42.747Z,25.20
2018-07-01T14:13:13.314Z,25.20
2018-07-01T14:15:43.714Z,25.40
2018-07-01T14:18:14.256Z,25.60
2018-07-01T14:20:45.031Z,25.60
2018-07-01T14:23:15.687Z,25.80
2018-07-01T14:25:46.444Z,25.60
2018-07-01T14:28:16.819Z,26.60
2018-07-01T14:30:47.440Z,25.80
2018-07-01T14:33:17.832Z,25.80
2018-07-01T14:35:48.188Z,25.60
2018-07-01T14:38:18.980Z,25.50
2018-07-01T14:40:49.428Z,25.40
2018-07-01T14:43:19.967Z,25.50
2018-07-01T14:45:50.532Z,25.60
2018-07-01T14:48:20.957Z,25.20
2018-07-01T14:50:51.363Z,25.00
2018-07-01T14:53:21.927Z,25.00
2018-07-01T14:55:52.250Z,25.20
2018-07-01T14:58:22.596Z,25.50
2018-07-01T15:00:52.880Z,25.70
2018-07-01T15:03:23.407Z,25.60
2018-07-01T15:05:53.933Z,25.70
2018-07-01T15:08:24.921Z,25.60
2018-07-01T15:10:55.391Z,23.60
2018-07-01T15:13:25.724Z,25.40
2018-07-01T15:15:56.070Z,25.50
2018-07-01T15:18:26.482Z,25.50
2018-07-01T15:20:57.339Z,25.30
2018-07-01T15:23:28.529Z,25.40
2018-07-01T15:26:00.221Z,25.60
2018-07-01T15:28:31.194Z,25.80
2018-07-01T15:31:01.698Z,25.90
2018-07-01T15:33:33.594Z,26.30
2018-07-01T15:36:04.045Z,25.70
2018-07-01T15:38:34.820Z,25.40
2018-07-01T15:41:05.143Z,25.30
2018-07-01T15:43:35.554Z,25.10
2018-07-01T15:46:06.887Z,25.10
2018-07-01T15:48:37.398Z,25.00
2018-07-01T15:51:07.951Z,24.90
2018-07-01T15:53:38.287Z,24.80
2018-07-01T15:56:08.751Z,24.70
2018-07-01T15:58:39.537Z,25.00
2018-07-01T16:01:09.849Z,24.90
2018-07-01T16:03:40.441Z,25.10
2018-07-01T16:06:10.782Z,25.20
2018-07-01T16:08:41.474Z,25.20
2018-07-01T16:11:12.526Z,25.00
2018-07-01T16:13:57.348Z,24.80
2018-07-01T16:16:27.723Z,25.10
2018-07-01T16:18:58.066Z,25.20
2018-07-01T16:21:28.611Z,24.90
2018-07-01T16:23:58.952Z,24.80
2018-07-01T16:26:34.618Z,25.10
2018-07-01T16:29:05.365Z,25.00
2018-07-01T16:31:35.829Z,25.30
2018-07-01T16:34:06.402Z,25.40
2018-07-01T16:36:36.672Z,25.00
2018-07-01T16:39:10.970Z,25.20
2018-07-01T16:41:41.303Z,25.30
2018-07-01T16:44:11.716Z,25.30
2018-07-01T16:46:42.093Z,25.00
2018-07-01T16:49:12.337Z,24.90
2018-07-01T16:51:42.963Z,25.00
2018-07-01T16:54:13.416Z,25.40
2018-07-01T16:56:44.042Z,25.30
2018-07-01T16:59:14.730Z,25.10
2018-07-01T17:01:45.100Z,25.00
2018-07-01T17:04:15.351Z,25.10
2018-07-01T17:06:45.884Z,25.20
2018-07-01T17:09:16.185Z,25.20
2018-07-01T17:11:46.912Z,25.10
2018-07-01T17:14:17.207Z,25.10
2018-07-01T17:16:47.687Z,25.20
2018-07-01T17:19:18.344Z,25.20
2018-07-01T17:21:48.800Z,25.10
2018-07-01T17:24:19.119Z,25.10
2018-07-01T17:26:49.368Z,24.90
2018-07-01T17:29:27.763Z,24.90
2018-07-01T17:32:03.152Z,23.50
2018-07-01T17:37:03.428Z,24.60
2018-07-01T17:39:33.815Z,24.80
2018-07-01T17:42:04.281Z,24.90
2018-07-01T17:44:34.996Z,25.10
2018-07-01T17:47:05.352Z,25.30
2018-07-01T17:49:35.678Z,25.00
2018-07-01T17:52:06.178Z,24.70
2018-07-01T17:54:36.539Z,24.40
2018-07-01T17:57:07.242Z,24.50
2018-07-01T17:59:37.772Z,24.50
2018-07-01T18:02:08.147Z,24.60
2018-07-01T18:04:38.856Z,24.60
2018-07-01T18:07:09.114Z,24.60
2018-07-01T18:09:39.554Z,23.50
2018-07-01T18:12:09.871Z,24.30
2018-07-01T18:14:40.186Z,25.20
2018-07-01T18:17:10.437Z,25.20
2018-07-01T18:19:41.158Z,25.30
2018-07-01T18:22:16.926Z,25.00
2018-07-01T18:24:53.954Z,24.90
2018-07-01T18:27:12.810Z,24.60
2018-07-01T18:29:43.504Z,24.30
2018-07-01T18:32:13.925Z,24.10
2018-07-01T18:34:44.248Z,24.20
2018-07-01T18:37:14.583Z,24.10
2018-07-01T18:39:44.818Z,24.30
2018-07-01T18:42:15.266Z,24.40
2018-07-01T18:44:45.579Z,24.20
2018-07-01T18:47:16.164Z,24.10
2018-07-01T18:49:46.551Z,24.10
2018-07-01T18:52:16.839Z,24.00
2018-07-01T18:54:47.375Z,24.10
2018-07-01T18:57:17.644Z,24.10
2018-07-01T18:59:48.002Z,24.60
2018-07-01T19:02:18.340Z,23.90
2018-07-01T19:04:48.603Z,23.80
2018-07-01T19:07:19.267Z,23.90
2018-07-01T19:09:49.974Z,23.90
2018-07-01T19:12:20.601Z,23.90
2018-07-01T19:14:51.090Z,23.90
2018-07-01T19:17:21.742Z,23.80
2018-07-01T19:19:52.175Z,23.70
2018-07-01T19:22:22.440Z,23.60
2018-07-01T19:24:52.781Z,23.40
2018-07-01T19:27:23.044Z,23.40
2018-07-01T19:29:54.831Z,23.30
2018-07-01T19:32:25.183Z,23.10
2018-07-01T19:34:55.633Z,23.10
2018-07-01T19:37:25.996Z,23.20
2018-07-01T19:39:56.358Z,23.30
2018-07-01T19:42:26.764Z,23.30
2018-07-01T19:44:57.579Z,23.30
2018-07-01T19:47:28.172Z,23.50
2018-07-01T19:49:58.436Z,23.50
2018-07-01T19:52:28.906Z,24.60
2018-07-01T19:54:59.177Z,23.50
2018-07-01T19:57:29.891Z,23.50
2018-07-01T20:00:00.325Z,23.50
2018-07-01T20:02:30.569Z,23.40
2018-07-01T20:05:01.463Z,23.30
2018-07-01T20:07:31.896Z,23.20
2018-07-01T20:10:02.386Z,23.00
2018-07-01T20:12:32.706Z,23.00
2018-07-01T20:15:04.406Z,23.00
2018-07-01T20:17:34.879Z,22.90
2018-07-01T20:20:06.908Z,22.80
2018-07-01T20:22:37.468Z,22.70
2018-07-01T20:25:08.308Z,22.70
2018-07-01T20:27:38.811Z,22.60
2018-07-01T20:30:12.749Z,22.50
2018-07-01T20:32:43.618Z,24.50
2018-07-01T20:35:15.372Z,21.80
2018-07-01T20:37:47.970Z,21.50
2018-07-01T20:40:19.502Z,21.40
2018-07-01T20:42:50.714Z,21.00
2018-07-01T20:45:21.518Z,21.20
2018-07-01T20:47:54.174Z,21.30
2018-07-01T20:50:24.765Z,21.30
2018-07-01T20:52:55.187Z,21.40
2018-07-01T20:55:25.718Z,21.50
2018-07-01T20:57:57.184Z,21.70
2018-07-01T21:00:29.457Z,21.70
2018-07-01T21:03:00.220Z,21.60
2018-07-01T21:05:31.174Z,21.10
2018-07-01T21:08:02.597Z,20.90
2018-07-01T21:10:33.215Z,20.90
2018-07-01T21:13:03.815Z,21.00
2018-07-01T21:15:34.180Z,21.00
2018-07-01T21:18:05.639Z,21.20
2018-07-01T21:23:06.452Z,21.10
2018-07-01T21:25:38.963Z,21.00
2018-07-01T21:28:09.483Z,21.00
2018-07-01T21:30:41.172Z,21.00
2018-07-01T21:33:11.784Z,19.00
2018-07-01T21:35:42.297Z,22.10
2018-07-01T21:38:12.924Z,20.70
2018-07-01T21:40:43.623Z,20.60
2018-07-01T21:43:14.300Z,20.60
2018-07-01T21:45:45.299Z,20.50
2018-07-01T21:48:16.011Z,20.30
2018-07-01T21:50:48.711Z,20.30
2018-07-01T21:53:19.520Z,20.30
2018-07-01T21:55:51.406Z,21.10
2018-07-01T21:58:22.441Z,20.30
2018-07-01T22:00:54.466Z,19.10
2018-07-01T22:03:25.087Z,19.90
2018-07-01T22:05:56.224Z,19.90
2018-07-01T22:08:27.954Z,20.00
2018-07-01T22:11:08.923Z,20.00
2018-07-01T22:14:49.631Z,19.90
2018-07-01T22:17:21.134Z,20.00
2018-07-01T22:19:52.009Z,19.90
2018-07-01T22:22:23.351Z,19.90
2018-07-01T22:24:56.527Z,19.60
2018-07-01T22:27:27.059Z,17.10
2018-07-01T22:29:57.869Z,19.20
2018-07-01T22:32:28.525Z,18.90
2018-07-01T22:34:59.499Z,19.20
2018-07-01T22:37:31.044Z,19.10
2018-07-01T22:40:02.473Z,19.10
2018-07-01T22:42:33.462Z,19.10
2018-07-01T22:45:05.525Z,19.10
2018-07-01T22:47:36.080Z,19.30
2018-07-01T22:50:10.372Z,19.30
2018-07-01T22:52:41.045Z,19.20
2018-07-01T22:55:11.765Z,19.00
2018-07-01T22:57:42.224Z,19.10
2018-07-01T23:00:13.455Z,19.10
2018-07-01T23:05:18.840Z,19.00
2018-07-01T23:07:49.737Z,20.10
2018-07-01T23:10:22.303Z,19.00
2018-07-01T23:12:53.529Z,19.00
2018-07-01T23:15:23.983Z,20.10
2018-07-01T23:17:55.205Z,19.10
2018-07-01T23:20:25.733Z,19.10
2018-07-01T23:22:56.345Z,19.10
2018-07-01T23:25:28.786Z,18.30
2018-07-01T23:27:59.240Z,19.00
2018-07-01T23:30:29.926Z,19.20
2018-07-01T23:33:01.542Z,19.00
2018-07-01T23:35:32.051Z,19.00
2018-07-01T23:38:03.518Z,21.20
2018-07-01T23:40:34.092Z,18.90
2018-07-01T23:43:04.608Z,18.90
2018-07-01T23:45:35.060Z,18.90
2018-07-01T23:50:36.661Z,18.80
2018-07-01T23:53:07.481Z,18.80
2018-07-01T23:55:38.437Z,18.70
2018-07-01T23:58:09.026Z,18.60
